createdAt,value
2019-05-22T00:07:15.234Z,92.14
2019-05-22T00:12:13.106Z,92.35
2019-05-22T00:17:10.950Z,92.34
2019-05-22T00:22:12.095Z,92.20
2019-05-22T00:27:10.686Z,92.02
2019-05-22T00:32:08.862Z,91.72
2019-05-22T00:37:05.418Z,91.54
2019-05-22T00:42:01.747Z,90.74
2019-05-22T00:46:57.696Z,90.30
2019-05-22T00:51:55.618Z,89.18
2019-05-22T00:56:57.036Z,88.71
2019-05-22T01:01:54.878Z,88.40
2019-05-22T01:06:53.324Z,88.36
2019-05-22T01:11:51.285Z,89.18
2019-05-22T01:16:49.278Z,89.51
2019-05-22T01:21:45.901Z,88.95
2019-05-22T01:26:43.155Z,89.00
2019-05-22T01:31:41.103Z,88.51
2019-05-22T01:36:44.967Z,88.33
2019-05-22T01:41:43.739Z,88.43
2019-05-22T01:46:41.318Z,88.51
2019-05-22T01:51:38.241Z,88.99
2019-05-22T01:56:35.279Z,88.62
2019-05-22T02:01:31.786Z,88.85
2019-05-22T02:06:29.486Z,89.25
2019-05-22T02:11:26.813Z,89.85
2019-05-22T02:16:23.644Z,89.40
2019-05-22T02:21:19.998Z,89.36
2019-05-22T02:26:17.378Z,89.44
2019-05-22T02:36:24.574Z,89.14
2019-05-22T02:41:24.318Z,89.40
2019-05-22T02:46:20.833Z,89.85
2019-05-22T02:51:16.769Z,90.34
2019-05-22T02:56:13.287Z,90.57
2019-05-22T03:01:09.767Z,90.40
2019-05-22T03:06:11.790Z,90.95
2019-05-22T03:11:07.824Z,91.09
2019-05-22T03:16:05.957Z,90.96
2019-05-22T03:21:01.986Z,90.93
2019-05-22T03:25:57.924Z,90.65
2019-05-22T03:30:53.960Z,90.81
2019-05-22T03:36:16.403Z,91.17
2019-05-22T03:41:12.939Z,91.09
2019-05-22T03:46:39.692Z,91.30
2019-05-22T03:51:35.731Z,91.00
2019-05-22T03:56:35.665Z,92.06
2019-05-22T04:01:32.602Z,92.50
2019-05-22T04:06:29.442Z,92.73
2019-05-22T04:11:29.512Z,92.72
2019-05-22T04:16:27.046Z,92.67
2019-05-22T04:21:22.983Z,92.61
2019-05-22T04:26:20.134Z,92.56
2019-05-22T04:31:17.161Z,92.31
2019-05-22T04:36:13.161Z,92.37
2019-05-22T04:41:09.885Z,92.46
2019-05-22T04:46:07.690Z,92.58
2019-05-22T04:51:23.439Z,92.81
2019-05-22T04:56:19.561Z,92.64
2019-05-22T05:01:16.190Z,92.32
2019-05-22T05:06:12.525Z,92.01
2019-05-22T05:11:09.181Z,92.09
2019-05-22T05:16:06.031Z,92.03
2019-05-22T05:21:01.980Z,91.75
2019-05-22T05:25:58.248Z,91.82
2019-05-22T05:30:54.577Z,92.13
2019-05-22T05:35:50.618Z,92.36
2019-05-22T05:40:47.111Z,92.90
2019-05-22T05:45:45.046Z,93.29
2019-05-22T05:51:01.205Z,93.58
2019-05-22T05:56:04.169Z,93.74
2019-05-22T06:01:11.093Z,93.90
2019-05-22T06:06:23.874Z,93.89
2019-05-22T06:11:32.958Z,93.85
2019-05-22T06:16:52.837Z,94.11
2019-05-22T06:21:49.816Z,94.22
2019-05-22T06:26:54.938Z,94.83
2019-05-22T06:32:04.211Z,95.36
2019-05-22T06:37:07.732Z,95.68
2019-05-22T06:42:05.568Z,95.79
2019-05-22T06:47:02.348Z,95.30
2019-05-22T06:52:05.066Z,94.78
2019-05-22T06:57:01.203Z,94.62
2019-05-22T07:02:01.406Z,93.46
2019-05-22T07:06:57.511Z,92.80
2019-05-22T07:11:54.369Z,91.79
2019-05-22T07:16:50.499Z,91.66
2019-05-22T07:21:48.131Z,91.48
2019-05-22T07:26:45.221Z,91.24
2019-05-22T07:31:41.192Z,91.31
2019-05-22T07:36:38.526Z,90.41
2019-05-22T07:41:34.662Z,89.71
2019-05-22T07:46:31.096Z,89.55
2019-05-22T07:51:27.254Z,89.48
2019-05-22T07:56:23.787Z,89.13
2019-05-22T08:01:19.718Z,88.86
2019-05-22T08:06:16.146Z,88.30
2019-05-22T08:11:12.981Z,88.30
2019-05-22T08:16:09.218Z,88.33
2019-05-22T08:21:05.766Z,88.88
2019-05-22T08:26:02.024Z,88.78
2019-05-22T08:30:58.925Z,89.09
2019-05-22T08:35:55.440Z,88.61
2019-05-22T08:40:51.681Z,87.82
2019-05-22T08:45:48.143Z,86.67
2019-05-22T08:50:45.307Z,86.00
2019-05-22T08:55:42.649Z,83.74
2019-05-22T09:00:38.788Z,83.62
2019-05-22T09:05:34.716Z,83.18
2019-05-22T09:10:31.349Z,84.49
2019-05-22T09:15:28.486Z,84.48
2019-05-22T09:20:25.152Z,84.75
2019-05-22T09:25:21.761Z,82.21
2019-05-22T09:30:18.415Z,82.29
2019-05-22T09:35:14.737Z,80.73
2019-05-22T09:40:10.973Z,80.17
2019-05-22T09:45:08.046Z,79.12
2019-05-22T09:50:08.935Z,79.15
2019-05-22T09:55:06.374Z,78.02
2019-05-22T10:00:06.328Z,78.11
2019-05-22T10:05:04.210Z,79.06
2019-05-22T10:10:00.131Z,77.70
2019-05-22T10:14:56.574Z,77.93
2019-05-22T10:19:53.401Z,75.92
2019-05-22T10:24:50.960Z,49.51
2019-05-22T10:29:48.066Z,49.59
2019-05-22T10:34:44.195Z,48.60
2019-05-22T10:39:40.336Z,49.90
2019-05-22T10:44:36.309Z,48.14
2019-05-22T10:49:32.331Z,48.66
2019-05-22T10:54:28.367Z,47.88
2019-05-22T10:59:24.320Z,47.88
2019-05-22T11:04:22.326Z,47.62
2019-05-22T11:09:19.747Z,48.44
2019-05-22T11:14:16.053Z,46.64
2019-05-22T11:19:12.071Z,47.13
2019-05-22T11:24:08.299Z,45.51
2019-05-22T11:29:04.419Z,45.27
2019-05-22T11:34:00.724Z,45.64
2019-05-22T11:39:01.920Z,45.34
2019-05-22T11:43:58.090Z,45.06
2019-05-22T11:48:54.277Z,44.59
2019-05-22T11:54:07.395Z,44.97
2019-05-22T11:58:48.765Z,44.03
2019-05-22T12:03:44.659Z,44.18
2019-05-22T12:08:44.215Z,44.76
2019-05-22T12:13:40.328Z,42.94
2019-05-22T12:18:36.720Z,43.80
2019-05-22T12:23:33.073Z,43.88
2019-05-22T12:28:29.341Z,40.59
2019-05-22T12:33:25.544Z,41.72
2019-05-22T12:38:26.719Z,41.58
2019-05-22T12:43:21.121Z,41.61
2019-05-22T12:48:17.277Z,40.73
2019-05-22T12:53:14.609Z,41.27
2019-05-22T12:58:10.738Z,40.83
2019-05-22T13:03:07.070Z,40.12
2019-05-22T13:08:03.490Z,40.08
2019-05-22T13:13:00.189Z,39.26
2019-05-22T13:17:58.004Z,39.52
2019-05-22T13:22:57.406Z,38.39
2019-05-22T13:27:57.739Z,38.52
2019-05-22T13:32:54.741Z,39.13
2019-05-22T13:37:51.257Z,37.65
2019-05-22T13:42:47.410Z,37.18
2019-05-22T13:47:45.799Z,37.64
2019-05-22T13:52:42.225Z,38.73
2019-05-22T13:57:40.256Z,37.57
2019-05-22T14:02:36.776Z,37.60
2019-05-22T14:07:32.797Z,36.26
2019-05-22T14:12:29.129Z,37.62
2019-05-22T14:17:25.235Z,36.92
2019-05-22T14:22:21.379Z,35.46
2019-05-22T14:27:18.786Z,36.49
2019-05-22T14:32:15.733Z,35.54
2019-05-22T14:37:11.756Z,34.67
2019-05-22T14:42:08.531Z,34.89
2019-05-22T14:47:12.999Z,34.77
2019-05-22T14:52:02.946Z,32.98
2019-05-22T14:56:59.253Z,32.81
2019-05-22T15:01:55.375Z,32.23
2019-05-22T15:06:51.405Z,32.03
2019-05-22T15:11:47.732Z,33.76
2019-05-22T15:16:43.754Z,32.58
2019-05-22T15:21:39.948Z,33.93
2019-05-22T15:26:36.378Z,32.21
2019-05-22T15:31:32.303Z,32.38
2019-05-22T15:36:28.534Z,33.36
2019-05-22T15:41:25.362Z,32.83
2019-05-22T15:46:23.416Z,33.54
2019-05-22T15:51:23.748Z,32.26
2019-05-22T15:56:20.698Z,33.59
2019-05-22T16:01:19.861Z,32.78
2019-05-22T16:06:16.232Z,32.20
2019-05-22T16:11:15.344Z,32.61
2019-05-22T16:16:14.262Z,30.94
2019-05-22T16:21:10.891Z,32.53
2019-05-22T16:26:08.425Z,32.90
2019-05-22T16:31:07.819Z,32.15
2019-05-22T16:36:05.133Z,32.70
2019-05-22T16:41:01.197Z,31.97
2019-05-22T16:45:57.655Z,30.80
2019-05-22T16:50:53.587Z,29.53
2019-05-22T16:55:49.617Z,28.96
2019-05-22T17:00:47.447Z,29.44
2019-05-22T17:05:43.636Z,28.55
2019-05-22T17:10:39.960Z,28.13
2019-05-22T17:15:37.034Z,29.46
2019-05-22T17:20:33.364Z,29.68
2019-05-22T17:25:29.686Z,30.26
2019-05-22T17:30:26.211Z,28.54
2019-05-22T17:35:22.941Z,28.38
2019-05-22T17:40:19.869Z,27.93
2019-05-22T17:45:17.234Z,27.37
2019-05-22T17:50:26.299Z,28.83
2019-05-22T17:55:15.699Z,29.93
2019-05-22T18:00:32.177Z,29.95
2019-05-22T18:05:28.627Z,27.82
2019-05-22T18:10:26.573Z,28.08
2019-05-22T18:15:22.934Z,29.19
2019-05-22T18:20:21.262Z,29.08
2019-05-22T18:25:17.495Z,28.94
2019-05-22T18:30:13.713Z,29.02
2019-05-22T18:35:12.133Z,28.92
2019-05-22T18:40:10.454Z,28.47
2019-05-22T18:45:06.816Z,29.77
2019-05-22T18:50:04.743Z,30.31
2019-05-22T18:55:00.801Z,30.68
2019-05-22T19:00:02.412Z,31.61
2019-05-22T19:04:54.808Z,30.25
2019-05-22T19:09:50.926Z,34.43
2019-05-22T19:14:47.054Z,34.77
2019-05-22T19:19:43.080Z,35.99
2019-05-22T19:24:39.172Z,38.07
2019-05-22T19:29:35.699Z,38.70
2019-05-22T19:34:32.430Z,38.84
2019-05-22T19:39:29.389Z,40.01
2019-05-22T19:44:25.593Z,40.95
2019-05-22T19:49:22.132Z,42.15
2019-05-22T19:54:18.055Z,43.08
2019-05-22T19:59:14.518Z,44.12
2019-05-22T20:04:10.872Z,44.24
2019-05-22T20:09:13.234Z,45.94
2019-05-22T20:14:10.138Z,46.94
2019-05-22T20:19:08.198Z,47.64
2019-05-22T20:24:05.742Z,48.23
2019-05-22T20:29:02.434Z,48.71
2019-05-22T20:33:58.686Z,49.19
2019-05-22T20:39:06.620Z,49.45
2019-05-22T20:44:03.226Z,49.75
2019-05-22T20:49:00.241Z,49.79
2019-05-22T20:53:57.069Z,50.10
2019-05-22T20:58:53.829Z,49.89
2019-05-22T21:03:49.789Z,50.13
2019-05-22T21:08:51.882Z,51.45
2019-05-22T21:13:48.304Z,52.32
2019-05-22T21:18:49.110Z,52.62
2019-05-22T21:23:45.259Z,52.18
2019-05-22T21:28:42.570Z,51.43
2019-05-22T21:33:38.810Z,52.29
2019-05-22T21:38:43.497Z,52.12
2019-05-22T21:43:40.247Z,52.45
2019-05-22T21:48:36.784Z,53.04
2019-05-22T21:53:33.016Z,53.42
2019-05-22T21:58:29.385Z,53.35
2019-05-22T22:03:44.375Z,53.47
2019-05-22T22:14:02.504Z,49.35
2019-05-22T22:19:00.356Z,46.01
2019-05-22T22:23:56.285Z,45.84
2019-05-22T22:28:53.010Z,45.63
2019-05-22T22:33:54.387Z,45.68
2019-05-22T22:38:53.278Z,45.59
2019-05-22T22:43:52.210Z,46.34
2019-05-22T22:48:50.709Z,44.26
2019-05-22T22:53:46.840Z,44.54
2019-05-22T22:58:43.169Z,44.16
2019-05-22T23:03:40.456Z,45.49
2019-05-22T23:08:43.635Z,45.92
2019-05-22T23:13:40.860Z,46.60
2019-05-22T23:18:42.402Z,47.18
2019-05-22T23:23:38.126Z,47.80
2019-05-22T23:28:36.378Z,48.62
2019-05-22T23:33:33.316Z,49.32
2019-05-22T23:38:37.534Z,50.01
2019-05-22T23:43:33.570Z,50.60
2019-05-22T23:48:30.090Z,51.16
2019-05-22T23:53:28.118Z,51.96
2019-05-22T23:58:29.846Z,52.39
